logo
Rechercher aéroport 
image banner adimage banner adimage banner ad
image banner ad

CL51 - Santa Rosa Memorial Hospital

Situé à Santa Rosa, United States

ICAO - CL51, IATA -

Données fournies par Airmate  

Information générale

Coordonnées: N38°26'37" W122°42'5"
Élévation : 208 feet MSL.
Variation magnétique : 16° East
Voir autres Aéroports à California

Données opérationnelles

Special qualification required
Heure actuelle UTC:
Heure actuelle locale:
METAR: KSTS 050053Z 20006KT 10SM SCT021 SCT028 13/09 A3006 RMK AO2 SLP173 T01280089
TAF: KSTS 041920Z 0419/0518 VRB05KT P6SM VCSH FEW050 SCT070 TEMPO 0419/0421 4SM -SHRA BR BKN050 FM042200 24006KT P6SM VCSH FEW020 BKN040 FM050500 VRB02KT 4SM -RA BR OVC015 FM051600 17006KT 2SM BR BKN007
Voir NOTAMs / SUP AIP / TFR affectant cet aéroport [VIEW]
Fréquences de communication: [VIEW]

Pistes:

Coordonnées de l'aéroport

Adresse: Santa Rosa United States

Vue satellite de CL51